CheckWX is a tool to help pilots better visualize weather data.  It is not intended as a substitute for an official pre-flight weather briefing.

05:42:10 UTC

KDIJ METAR
Driggs-Reed Memorial Airport
Driggs, Idaho, USA
Current

46 mins ago

KDIJ 250456Z AUTO 15008KT 10SM OVC035 00/M02 A3028 RMK AO2 SLP273 T00001022
Observed
Mar-25 @ 04:56 UTC
Wind
  • 150° at 8 KTS
Visibility
10 SM
Flight Rules
VFR
Cloud Levels
  • Overcast at 3,500' AGL
Temperature
C / 32°F
Dewpoint
-2°C / 28°F
Humidity
87%
Altimeter
30.28" Hg
Pressure
1027.3 hPa
Previous

2 hours ago

KDIJ 250356Z AUTO 17010KT 10SM OVC035 00/M03 A3027 RMK AO2 UPE26 SLP275 P0000 T00001028
Observed
Mar-25 @ 03:56 UTC
Wind
  • 170° at 10 KTS
Visibility
10 SM
Flight Rules
VFR
Cloud Levels
  • Overcast at 3,500' AGL
Temperature
C / 32°F
Dewpoint
-3°C / 27°F
Humidity
80%
Altimeter
30.27" Hg
Pressure
1027.5 hPa
Current Rain
0.01"
Previous

3 hours ago

KDIJ 250256Z AUTO 17010KT 10SM UP BKN035 BKN060 OVC070 00/M02 A3025 RMK AO2 UPB38SNE38 SLP274 P0000 60001 T00001017 52007
Observed
Mar-25 @ 02:56 UTC
Wind
  • 170° at 10 KTS
Visibility
10 SM
Flight Rules
VFR
Conditions
Unknown precipitation
Cloud Levels
  • Broken at 3,500' AGL
  • Broken at 6,000' AGL
  • Overcast at 7,000' AGL
Temperature
C / 32°F
Dewpoint
-2°C / 28°F
Humidity
87%
Altimeter
30.25" Hg
Pressure
1027.4 hPa
Current Rain
0.01"